MDZ weather

El Plumerillo Airport
Mendoza, Mendoza Province, Argentina

Public forecast

Using degrees Celsius for public forecast. Weather courtesy of forecast.io.

Current aviation weather report (METAR) for El Plumerillo Airport

Retrieved 2019/10/20 04:00 UTC (51 minutes ago):

SAME 200400Z 18005KT 8000 -DZ BKN040 18/11Q1013

Aviation forecast (TAF) for El Plumerillo Airport

Retrieved 2019-10-20 00:00 UTC (5 hours ago):

TAF SAME 192300Z 2000/2024 05010KT 9999 BKN040 FEW050TCU TX24/2020Z TN15/2011Z BECMG 2002/2004 14010KT 5000 TSRA BKN030 FEW040CB BECMG 2011/2014 16010KT 9999 NSW BKN030 FEW040TCU